Las Heras, Argentina
Current Conditions -  °F | °C
As of 10:00 AM on Monday 24 Nov 2014 (Local Time) from SAME Reporting Station
Few Clouds Few Clouds  
Wind Chill: 20°   Ceiling: Unl
Heat Index: 20°   Visibility: 6mi
Dew Point:   Wind: 10mph
Humidity: 30%   Direction: 90°E
Pressure: 29.97"   Gusts: NA
Location:  32.85°S, 68.82°W
Report Text: SAME 241300Z 09009KT 9999 FEW040 20/02 Q1015
Loading
Personal Weather Stations






























Interactive Weather Map New forecast layout! Learn more

10-Day Weather Forecast

Advertisements
Track Severe Weather on mobile